createdAt,value
2017-11-09T00:02:33.095Z,72.78
2017-11-09T00:05:06.504Z,82.95
2017-11-09T00:07:34.585Z,81.85
2017-11-09T00:10:02.213Z,77.60
2017-11-09T00:12:29.718Z,76.43
2017-11-09T00:14:57.237Z,85.80
2017-11-09T00:17:24.764Z,71.18
2017-11-09T00:19:52.283Z,76.28
2017-11-09T00:22:19.817Z,79.30
2017-11-09T00:24:47.340Z,67.15
2017-11-09T00:27:15.310Z,78.72
2017-11-09T00:29:43.624Z,79.95
2017-11-09T00:32:11.251Z,71.50
2017-11-09T00:34:38.772Z,77.05
2017-11-09T00:37:06.310Z,83.78
2017-11-09T00:39:33.825Z,76.07
2017-11-09T00:42:01.326Z,77.20
2017-11-09T00:44:28.846Z,77.53
2017-11-09T00:46:56.381Z,78.55
2017-11-09T00:49:24.753Z,82.80
2017-11-09T00:51:52.291Z,78.00
2017-11-09T00:54:19.807Z,79.93
2017-11-09T00:56:47.323Z,77.50
2017-11-09T00:59:14.882Z,77.53
2017-11-09T01:01:43.174Z,81.72
2017-11-09T01:04:11.450Z,69.68
2017-11-09T01:06:39.268Z,87.90
2017-11-09T01:09:07.239Z,79.30
2017-11-09T01:11:34.749Z,78.00
2017-11-09T01:14:03.047Z,77.35
2017-11-09T01:16:30.554Z,80.35
2017-11-09T01:18:58.077Z,77.85
2017-11-09T01:21:25.603Z,97.37
2017-11-09T01:23:53.873Z,89.45
2017-11-09T01:26:22.160Z,94.82
2017-11-09T01:28:50.458Z,89.20
2017-11-09T01:31:17.981Z,96.97
2017-11-09T01:33:46.020Z,98.10
2017-11-09T01:36:13.988Z,109.10
2017-11-09T01:38:41.585Z,88.57
2017-11-09T01:41:09.869Z,96.95
2017-11-09T01:43:38.148Z,88.00
2017-11-09T01:46:06.423Z,88.65
2017-11-09T01:48:34.726Z,93.65
2017-11-09T01:51:02.237Z,92.78
2017-11-09T01:53:29.745Z,74.30
2017-11-09T01:55:57.395Z,77.15
2017-11-09T01:58:25.756Z,86.95
2017-11-09T02:00:54.040Z,84.30
2017-11-09T02:03:21.586Z,96.75
2017-11-09T02:05:49.878Z,88.75
2017-11-09T02:08:17.400Z,87.40
2017-11-09T02:10:45.106Z,86.65
2017-11-09T02:13:12.627Z,88.40
2017-11-09T02:15:40.125Z,92.93
2017-11-09T02:18:07.649Z,87.12
2017-11-09T02:20:35.948Z,80.05
2017-11-09T02:23:03.645Z,79.82
2017-11-09T02:25:31.163Z,77.85
2017-11-09T02:27:59.478Z,73.60
2017-11-09T02:30:27.007Z,79.12
2017-11-09T02:32:54.558Z,72.05
2017-11-09T02:35:22.875Z,76.18
2017-11-09T02:37:50.964Z,67.57
2017-11-09T02:40:18.481Z,74.70
2017-11-09T02:42:46.006Z,76.57
2017-11-09T02:45:13.523Z,73.90
2017-11-09T02:47:41.024Z,68.93
2017-11-09T02:50:08.546Z,77.93
2017-11-09T02:52:36.064Z,74.30
2017-11-09T02:55:03.570Z,68.78
2017-11-09T02:57:31.183Z,74.62
2017-11-09T02:59:58.714Z,70.70
2017-11-09T03:02:26.245Z,75.28
2017-11-09T03:04:53.769Z,85.30
2017-11-09T03:07:21.288Z,91.93
2017-11-09T03:09:48.802Z,87.70
2017-11-09T03:12:16.337Z,86.18
2017-11-09T03:14:43.881Z,85.22
2017-11-09T03:17:11.377Z,98.37
2017-11-09T03:19:38.913Z,103.12
2017-11-09T03:22:07.274Z,91.87
2017-11-09T03:24:35.562Z,98.85
2017-11-09T03:27:03.399Z,91.35
2017-11-09T03:29:30.903Z,97.47
2017-11-09T03:31:58.441Z,101.78
2017-11-09T03:34:26.777Z,110.40
2017-11-09T03:36:54.314Z,106.53
2017-11-09T03:39:21.849Z,109.43
2017-11-09T03:41:49.792Z,112.37
2017-11-09T03:44:18.220Z,100.72
2017-11-09T03:46:47.300Z,107.12
2017-11-09T03:49:15.606Z,105.75
2017-11-09T03:51:43.962Z,107.47
2017-11-09T03:54:11.491Z,107.07
2017-11-09T03:56:39.811Z,109.68
2017-11-09T03:59:07.314Z,112.28
2017-11-09T04:01:34.802Z,99.22
2017-11-09T04:04:02.349Z,100.95
2017-11-09T04:06:30.645Z,110.95
2017-11-09T04:08:58.173Z,102.53
2017-11-09T04:11:25.713Z,95.68
2017-11-09T04:13:53.215Z,98.53
2017-11-09T04:16:20.727Z,100.10
2017-11-09T04:18:48.257Z,96.57
2017-11-09T04:21:15.763Z,116.43
2017-11-09T04:23:44.056Z,113.47
2017-11-09T04:26:12.350Z,92.05
2017-11-09T04:28:39.869Z,117.10
2017-11-09T04:31:07.919Z,107.90
2017-11-09T04:33:35.530Z,104.18
2017-11-09T04:36:03.065Z,121.78
2017-11-09T04:38:30.569Z,142.60
2017-11-09T04:40:58.101Z,153.15
2017-11-09T04:43:25.642Z,127.10
2017-11-09T04:45:53.929Z,135.32
2017-11-09T04:48:22.230Z,129.63
2017-11-09T04:50:49.756Z,140.40
2017-11-09T04:53:17.272Z,141.12
2017-11-09T04:55:44.853Z,145.30
2017-11-09T04:58:12.380Z,156.20
2017-11-09T05:00:39.881Z,148.40
2017-11-09T05:03:07.433Z,157.90
2017-11-09T05:05:34.937Z,153.93
2017-11-09T05:08:02.456Z,139.93
2017-11-09T05:10:29.982Z,158.57
2017-11-09T05:12:57.477Z,169.65
2017-11-09T05:15:24.985Z,145.45
2017-11-09T05:17:52.518Z,164.88
2017-11-09T05:20:20.787Z,162.30
2017-11-09T05:22:49.133Z,177.02
2017-11-09T05:25:16.661Z,173.68
2017-11-09T05:27:45.570Z,170.90
2017-11-09T05:30:13.128Z,158.30
2017-11-09T05:32:40.674Z,155.87
2017-11-09T05:35:09.609Z,154.12
2017-11-09T05:37:37.176Z,155.55
2017-11-09T05:40:05.500Z,153.52
2017-11-09T05:42:33.040Z,154.40
2017-11-09T05:45:00.568Z,166.90
2017-11-09T05:47:28.089Z,151.90
2017-11-09T05:49:55.599Z,140.48
2017-11-09T05:52:23.892Z,166.23
2017-11-09T05:54:52.103Z,143.20
2017-11-09T05:57:19.713Z,143.25
2017-11-09T05:59:48.005Z,129.50
2017-11-09T06:02:16.020Z,140.07
2017-11-09T06:04:44.297Z,140.02
2017-11-09T06:07:11.889Z,145.90
2017-11-09T06:09:40.190Z,140.70
2017-11-09T06:12:07.718Z,143.13
2017-11-09T06:14:35.263Z,152.57
2017-11-09T06:17:02.785Z,151.40
2017-11-09T06:19:30.469Z,155.45
2017-11-09T06:21:58.092Z,156.90
2017-11-09T06:24:25.619Z,170.45
2017-11-09T06:26:53.124Z,172.00
2017-11-09T06:29:22.170Z,161.95
2017-11-09T06:31:49.723Z,148.30
2017-11-09T06:34:18.362Z,132.15
2017-11-09T06:36:45.929Z,162.32
2017-11-09T06:39:13.833Z,167.40
2017-11-09T06:41:42.396Z,141.43
2017-11-09T06:44:09.898Z,157.10
2017-11-09T06:46:38.209Z,156.20
2017-11-09T06:49:05.736Z,152.68
2017-11-09T06:51:34.007Z,154.93
2017-11-09T06:54:03.245Z,163.48
2017-11-09T06:56:30.784Z,159.10
2017-11-09T06:58:59.225Z,146.93
2017-11-09T07:01:26.754Z,145.70
2017-11-09T07:03:54.272Z,143.37
2017-11-09T07:06:22.552Z,144.77
2017-11-09T07:08:51.053Z,138.37
2017-11-09T07:11:18.841Z,150.90
2017-11-09T07:13:46.779Z,133.23
2017-11-09T07:16:14.310Z,159.73
2017-11-09T07:18:42.605Z,154.30
2017-11-09T07:21:10.132Z,150.35
2017-11-09T07:23:37.644Z,150.40
2017-11-09T07:26:05.189Z,148.07
2017-11-09T07:28:32.694Z,151.35
2017-11-09T07:31:00.301Z,157.77
2017-11-09T07:33:27.857Z,157.52
2017-11-09T07:35:55.361Z,139.35
2017-11-09T07:38:22.866Z,142.52
2017-11-09T07:40:51.147Z,127.50
2017-11-09T07:43:19.737Z,143.37
2017-11-09T07:45:47.256Z,134.15
2017-11-09T07:48:14.805Z,138.23
2017-11-09T07:50:42.309Z,139.10
2017-11-09T07:53:10.718Z,141.10
2017-11-09T07:55:38.297Z,143.60
2017-11-09T07:58:07.066Z,135.82
2017-11-09T08:00:34.602Z,150.93
2017-11-09T08:03:02.146Z,147.73
2017-11-09T08:05:30.429Z,137.40
2017-11-09T08:07:58.698Z,144.85
2017-11-09T08:10:26.999Z,136.90
2017-11-09T08:12:54.522Z,136.45
2017-11-09T08:15:22.483Z,146.48
2017-11-09T08:17:50.189Z,134.00
2017-11-09T08:20:18.685Z,125.75
2017-11-09T08:22:46.213Z,116.07
2017-11-09T08:25:15.981Z,150.07
2017-11-09T08:27:48.179Z,130.93
2017-11-09T08:30:17.750Z,132.05
2017-11-09T08:32:47.700Z,148.62
2017-11-09T08:35:15.978Z,131.15
2017-11-09T08:37:44.298Z,133.15
2017-11-09T08:40:11.816Z,137.57
2017-11-09T08:42:40.109Z,140.45
2017-11-09T08:45:07.654Z,131.70
2017-11-09T08:47:36.957Z,134.68
2017-11-09T08:50:05.065Z,136.02
2017-11-09T08:52:33.371Z,128.73
2017-11-09T08:55:01.667Z,131.60
2017-11-09T08:57:29.166Z,131.50
2017-11-09T08:59:56.714Z,130.18
2017-11-09T09:02:24.683Z,129.87
2017-11-09T09:04:52.198Z,123.10
2017-11-09T09:07:19.756Z,121.15
2017-11-09T09:09:48.409Z,126.97
2017-11-09T09:12:15.964Z,107.10
2017-11-09T09:14:43.526Z,104.97
2017-11-09T09:17:11.054Z,128.80
2017-11-09T09:19:39.332Z,121.43
2017-11-09T09:22:08.565Z,122.45
2017-11-09T09:24:37.572Z,122.85
2017-11-09T09:27:11.042Z,118.97
2017-11-09T09:29:54.462Z,108.50
2017-11-09T09:32:22.899Z,116.37
2017-11-09T09:34:50.877Z,104.75
2017-11-09T09:37:30.442Z,112.30
2017-11-09T09:40:02.693Z,100.03
2017-11-09T09:42:30.244Z,106.65
2017-11-09T09:44:57.780Z,95.43
2017-11-09T09:47:26.940Z,107.22
2017-11-09T09:49:54.985Z,100.05
2017-11-09T09:52:23.583Z,117.18
2017-11-09T09:54:52.054Z,114.25
2017-11-09T09:57:20.345Z,105.03
2017-11-09T09:59:47.854Z,99.65
2017-11-09T10:02:15.365Z,114.82
2017-11-09T10:04:43.152Z,106.45
2017-11-09T10:07:12.002Z,106.22
2017-11-09T10:09:41.449Z,121.15
2017-11-09T10:12:09.025Z,102.97
2017-11-09T10:14:36.617Z,102.18
2017-11-09T10:17:04.125Z,113.93
2017-11-09T10:19:31.649Z,101.85
2017-11-09T10:21:59.944Z,95.25
2017-11-09T10:24:29.281Z,107.80
2017-11-09T10:26:57.744Z,101.15
2017-11-09T10:29:25.560Z,98.32
2017-11-09T10:31:53.226Z,94.68
2017-11-09T10:34:21.546Z,96.85
2017-11-09T10:36:49.066Z,104.53
2017-11-09T10:39:16.962Z,87.40
2017-11-09T10:41:44.525Z,86.25
2017-11-09T10:44:12.030Z,99.80
2017-11-09T10:46:39.608Z,88.65
2017-11-09T10:49:07.480Z,89.37
2017-11-09T10:51:35.333Z,90.25
2017-11-09T10:54:03.010Z,100.85
2017-11-09T10:56:31.342Z,89.53
2017-11-09T10:58:58.850Z,95.87
2017-11-09T11:01:27.119Z,87.53
2017-11-09T11:03:55.436Z,95.15
2017-11-09T11:06:22.964Z,89.75
2017-11-09T11:08:50.474Z,83.15
2017-11-09T11:11:18.011Z,78.70
2017-11-09T11:13:45.609Z,82.95
2017-11-09T11:16:13.114Z,93.50
2017-11-09T11:18:40.684Z,79.37
2017-11-09T11:21:08.198Z,75.10
2017-11-09T11:23:35.740Z,86.75
2017-11-09T11:26:03.716Z,82.53
2017-11-09T11:28:31.850Z,79.37
2017-11-09T11:30:59.715Z,76.12
2017-11-09T11:33:27.251Z,87.28
2017-11-09T11:35:54.988Z,87.68
2017-11-09T11:38:22.559Z,85.28
2017-11-09T11:40:50.873Z,82.62
2017-11-09T11:43:18.392Z,72.05
2017-11-09T11:45:46.670Z,70.35
2017-11-09T11:48:14.988Z,64.22
2017-11-09T11:50:42.505Z,60.20
2017-11-09T11:53:10.057Z,61.73
2017-11-09T11:55:39.496Z,55.33
2017-11-09T11:58:07.081Z,61.50
2017-11-09T12:00:34.592Z,53.17
2017-11-09T12:03:02.908Z,60.33
2017-11-09T12:05:30.428Z,71.03
2017-11-09T12:07:59.473Z,65.27
2017-11-09T12:10:27.359Z,57.90
2017-11-09T12:12:54.927Z,61.23
2017-11-09T12:15:22.457Z,64.60
2017-11-09T12:17:50.013Z,70.00
2017-11-09T12:20:17.547Z,68.80
2017-11-09T12:22:45.111Z,76.72
2017-11-09T12:25:12.651Z,79.70
2017-11-09T12:27:40.873Z,71.90
2017-11-09T12:30:09.265Z,70.70
2017-11-09T12:32:37.621Z,72.97
2017-11-09T12:35:05.149Z,70.75
2017-11-09T12:37:32.963Z,73.47
2017-11-09T12:40:01.321Z,79.53
2017-11-09T12:42:28.848Z,83.00
2017-11-09T12:44:56.847Z,85.78
2017-11-09T12:47:24.482Z,77.62
2017-11-09T12:49:52.013Z,75.00
2017-11-09T12:52:20.285Z,76.72
2017-11-09T12:54:47.815Z,84.05
2017-11-09T12:57:15.336Z,99.95
2017-11-09T12:59:42.861Z,94.78
2017-11-09T13:02:10.406Z,85.85
2017-11-09T13:04:37.917Z,82.90
2017-11-09T13:07:05.469Z,75.90
2017-11-09T13:09:33.030Z,82.80
2017-11-09T13:12:00.550Z,75.85
2017-11-09T13:14:28.070Z,73.03
2017-11-09T13:16:55.619Z,73.55
2017-11-09T13:19:38.038Z,70.87
2017-11-09T13:22:05.603Z,75.37
2017-11-09T13:24:33.455Z,70.20
2017-11-09T13:27:01.205Z,74.32
2017-11-09T13:29:28.796Z,70.18
2017-11-09T13:31:57.078Z,62.62
2017-11-09T13:34:24.585Z,66.22
2017-11-09T13:36:52.137Z,60.92
2017-11-09T13:39:20.436Z,68.20
2017-11-09T13:41:47.980Z,66.57
2017-11-09T13:44:15.545Z,63.03
2017-11-09T13:46:43.089Z,65.18
2017-11-09T13:49:11.382Z,64.90
2017-11-09T13:51:38.930Z,68.53
2017-11-09T13:54:08.153Z,69.87
2017-11-09T13:56:35.691Z,62.53
2017-11-09T13:59:03.247Z,64.90
2017-11-09T14:01:32.074Z,69.05
2017-11-09T14:04:00.262Z,69.40
2017-11-09T14:06:27.807Z,58.42
2017-11-09T14:08:55.328Z,63.63
2017-11-09T14:11:23.639Z,72.12
2017-11-09T14:13:51.189Z,60.63
2017-11-09T14:16:18.761Z,63.25
2017-11-09T14:18:46.937Z,66.82
2017-11-09T14:21:14.719Z,53.53
2017-11-09T14:23:43.020Z,62.22
2017-11-09T14:26:10.556Z,52.67
2017-11-09T14:28:38.104Z,48.33
2017-11-09T14:31:05.629Z,51.22
2017-11-09T14:33:33.337Z,56.97
2017-11-09T14:36:00.885Z,51.53
2017-11-09T14:38:31.305Z,71.53
2017-11-09T14:40:58.827Z,56.97
2017-11-09T14:43:26.394Z,60.38
2017-11-09T14:45:53.912Z,60.45
2017-11-09T14:48:21.501Z,64.53
2017-11-09T14:50:49.822Z,58.58
2017-11-09T14:53:17.351Z,70.15
2017-11-09T14:55:44.892Z,61.88
2017-11-09T14:58:12.491Z,60.42
2017-11-09T15:00:40.752Z,60.70
2017-11-09T15:03:08.276Z,59.60
2017-11-09T15:05:35.848Z,60.60
2017-11-09T15:08:04.164Z,57.88
2017-11-09T15:10:31.670Z,55.92
2017-11-09T15:13:00.790Z,54.78
2017-11-09T15:15:28.370Z,52.88
2017-11-09T15:17:55.882Z,59.88
2017-11-09T15:20:24.135Z,54.60
2017-11-09T15:22:51.674Z,52.60
2017-11-09T15:25:19.214Z,59.85
2017-11-09T15:27:46.756Z,51.85
2017-11-09T15:30:14.284Z,60.67
2017-11-09T15:32:41.820Z,56.05
2017-11-09T15:35:11.254Z,59.00
2017-11-09T15:37:38.777Z,55.05
2017-11-09T15:40:06.309Z,55.90
2017-11-09T15:42:33.868Z,61.72
2017-11-09T15:45:01.384Z,63.83
2017-11-09T15:47:28.902Z,49.22
2017-11-09T15:49:56.914Z,59.15
2017-11-09T15:52:24.610Z,69.32
2017-11-09T15:54:52.887Z,56.35
2017-11-09T15:57:21.195Z,53.45
2017-11-09T15:59:48.749Z,64.32
2017-11-09T16:02:16.276Z,58.50
2017-11-09T16:04:44.591Z,57.35
2017-11-09T16:07:18.004Z,58.05
2017-11-09T16:09:45.590Z,59.90
2017-11-09T16:12:13.933Z,61.97
2017-11-09T16:14:41.483Z,61.03
2017-11-09T16:17:09.080Z,61.55
2017-11-09T16:19:37.582Z,60.22
2017-11-09T16:22:05.115Z,64.25
2017-11-09T16:24:32.712Z,60.60
2017-11-09T16:27:00.333Z,64.90
2017-11-09T16:29:31.140Z,58.75
2017-11-09T16:31:58.917Z,55.88
2017-11-09T16:34:26.426Z,55.08
2017-11-09T16:36:54.746Z,61.05
2017-11-09T16:39:22.529Z,56.33
2017-11-09T16:41:50.317Z,52.65
2017-11-09T16:44:18.430Z,50.83
2017-11-09T16:46:45.991Z,62.42
2017-11-09T16:49:13.502Z,61.72
2017-11-09T16:51:41.757Z,58.50
2017-11-09T16:54:09.272Z,54.00
2017-11-09T16:56:37.722Z,57.35
2017-11-09T16:59:06.072Z,64.22
2017-11-09T17:01:33.712Z,64.12
2017-11-09T17:04:01.241Z,57.67
2017-11-09T17:06:29.645Z,58.20
2017-11-09T17:08:57.231Z,56.88
2017-11-09T17:11:24.738Z,58.95
2017-11-09T17:13:53.030Z,58.33
2017-11-09T17:16:20.547Z,61.47
2017-11-09T17:18:48.756Z,55.00
2017-11-09T17:21:16.305Z,58.63
2017-11-09T17:23:44.594Z,54.38
2017-11-09T17:26:12.394Z,52.92
2017-11-09T17:28:40.273Z,69.82
2017-11-09T17:31:07.806Z,59.40
2017-11-09T17:33:35.306Z,59.65
2017-11-09T17:36:02.846Z,56.45
2017-11-09T17:38:30.350Z,55.92
2017-11-09T17:40:58.713Z,59.28
2017-11-09T17:43:27.096Z,52.92
2017-11-09T17:45:54.618Z,52.95
2017-11-09T17:48:22.712Z,53.10
2017-11-09T17:50:50.830Z,56.03
2017-11-09T17:53:25.641Z,48.38
2017-11-09T17:55:53.877Z,49.22
2017-11-09T17:58:21.454Z,47.00
2017-11-09T18:00:50.134Z,45.72
2017-11-09T18:03:17.850Z,44.70
2017-11-09T18:05:45.486Z,51.55
2017-11-09T18:08:13.803Z,47.03
2017-11-09T18:10:41.502Z,48.00
2017-11-09T18:13:09.192Z,47.17
2017-11-09T18:15:37.036Z,45.15
2017-11-09T18:18:04.609Z,53.25
2017-11-09T18:20:32.987Z,50.75
2017-11-09T18:23:02.464Z,49.22
2017-11-09T18:25:30.844Z,48.30
2017-11-09T18:27:58.519Z,50.45
2017-11-09T18:30:26.200Z,56.80
2017-11-09T18:32:53.761Z,45.67
2017-11-09T18:35:22.757Z,50.88
2017-11-09T18:37:50.669Z,40.45
2017-11-09T18:40:18.211Z,39.05
2017-11-09T18:42:45.707Z,31.52
2017-11-09T18:45:13.389Z,31.33
2017-11-09T18:47:40.965Z,34.03
2017-11-09T18:50:08.468Z,37.90
2017-11-09T18:52:36.021Z,24.25
2017-11-09T18:55:03.590Z,23.48
2017-11-09T18:57:31.320Z,24.92
2017-11-09T18:59:58.944Z,26.08
2017-11-09T19:02:27.476Z,25.15
2017-11-09T19:04:55.342Z,25.83
2017-11-09T19:07:23.222Z,35.58
2017-11-09T19:09:51.256Z,36.92
2017-11-09T19:12:18.993Z,40.22
2017-11-09T19:14:47.512Z,37.47
2017-11-09T19:17:16.143Z,31.08
2017-11-09T19:19:43.899Z,34.70
2017-11-09T19:22:11.538Z,36.53
2017-11-09T19:24:39.158Z,32.38
2017-11-09T19:27:07.134Z,38.85
2017-11-09T19:29:35.151Z,37.17
2017-11-09T19:32:03.034Z,42.70
2017-11-09T19:34:30.765Z,40.10
2017-11-09T19:36:58.427Z,39.22
2017-11-09T19:39:26.250Z,42.45
2017-11-09T19:41:53.882Z,38.50
2017-11-09T19:44:21.720Z,48.35
2017-11-09T19:46:50.449Z,45.20
2017-11-09T19:49:18.073Z,43.33
2017-11-09T19:51:45.757Z,48.85
2017-11-09T19:54:14.128Z,53.95
2017-11-09T19:56:41.811Z,59.58
2017-11-09T19:59:09.692Z,60.25
2017-11-09T20:01:37.457Z,57.17
2017-11-09T20:04:05.157Z,55.05
2017-11-09T20:06:32.684Z,56.70
2017-11-09T20:09:00.963Z,53.90
2017-11-09T20:11:29.297Z,59.97
2017-11-09T20:13:57.001Z,62.75
2017-11-09T20:16:24.889Z,62.50
2017-11-09T20:18:52.496Z,58.70
2017-11-09T20:21:20.224Z,66.22
2017-11-09T20:23:47.915Z,66.07
2017-11-09T20:26:15.564Z,72.50
2017-11-09T20:28:43.118Z,76.43
2017-11-09T20:31:10.641Z,68.70
2017-11-09T20:33:40.690Z,74.60
2017-11-09T20:36:08.220Z,69.70
2017-11-09T20:38:36.834Z,76.32
2017-11-09T20:41:04.334Z,78.47
2017-11-09T20:43:31.875Z,82.60
2017-11-09T20:45:59.394Z,79.37
2017-11-09T20:48:27.075Z,66.18
2017-11-09T20:50:55.617Z,71.37
2017-11-09T20:53:23.294Z,63.70
2017-11-09T20:55:51.568Z,70.70
2017-11-09T20:58:19.872Z,70.40
2017-11-09T21:00:47.374Z,75.95
2017-11-09T21:03:14.907Z,73.90
2017-11-09T21:05:42.448Z,73.05
2017-11-09T21:08:09.972Z,81.63
2017-11-09T21:10:38.264Z,70.05
2017-11-09T21:13:06.592Z,81.37
2017-11-09T21:15:34.277Z,80.65
2017-11-09T21:18:01.808Z,79.60
2017-11-09T21:20:29.552Z,85.15
2017-11-09T21:22:57.317Z,81.75
2017-11-09T21:25:24.966Z,78.00
2017-11-09T21:27:52.469Z,89.28
2017-11-09T21:30:20.301Z,88.10
2017-11-09T21:32:48.638Z,93.47
2017-11-09T21:35:17.098Z,77.25
2017-11-09T21:37:44.704Z,81.03
2017-11-09T21:40:12.244Z,83.97
2017-11-09T21:42:40.661Z,94.28
2017-11-09T21:45:08.186Z,88.82
2017-11-09T21:47:36.458Z,96.50
2017-11-09T21:50:04.736Z,101.15
2017-11-09T21:52:33.051Z,106.95
2017-11-09T21:55:01.025Z,97.43
2017-11-09T21:57:29.364Z,91.55
2017-11-09T21:59:57.845Z,96.12
2017-11-09T22:02:25.409Z,85.78
2017-11-09T22:04:52.945Z,77.05
2017-11-09T22:07:21.257Z,91.78
2017-11-09T22:09:48.788Z,78.07
2017-11-09T22:12:17.085Z,77.60
2017-11-09T22:14:44.631Z,76.57
2017-11-09T22:17:12.919Z,95.05
2017-11-09T22:19:40.428Z,75.37
2017-11-09T22:22:07.974Z,82.45
2017-11-09T22:24:35.489Z,72.68
2017-11-09T22:27:03.777Z,80.57
2017-11-09T22:29:31.306Z,79.00
2017-11-09T22:31:58.824Z,85.53
2017-11-09T22:34:26.333Z,84.32
2017-11-09T22:36:54.659Z,85.72
2017-11-09T22:39:22.169Z,97.25
2017-11-09T22:41:50.461Z,80.18
2017-11-09T22:44:18.005Z,77.22
2017-11-09T22:46:46.297Z,85.50
2017-11-09T22:49:13.810Z,89.03
2017-11-09T22:51:41.392Z,80.87
2017-11-09T22:54:08.912Z,78.12
2017-11-09T22:56:36.415Z,79.18
2017-11-09T22:59:03.929Z,76.87
2017-11-09T23:01:31.453Z,75.40
2017-11-09T23:03:58.959Z,81.37
2017-11-09T23:06:26.520Z,68.60
2017-11-09T23:08:54.030Z,75.50
2017-11-09T23:11:21.733Z,71.07
2017-11-09T23:13:49.258Z,79.68
2017-11-09T23:16:16.775Z,73.10
2017-11-09T23:18:44.296Z,75.40
2017-11-09T23:21:12.601Z,71.55
2017-11-09T23:23:40.122Z,76.72
2017-11-09T23:26:07.625Z,72.53
2017-11-09T23:28:35.153Z,70.55
2017-11-09T23:31:02.664Z,81.25
2017-11-09T23:33:30.929Z,73.78
2017-11-09T23:35:59.229Z,72.62
2017-11-09T23:38:26.733Z,65.28
2017-11-09T23:40:54.255Z,68.72
2017-11-09T23:43:21.777Z,68.70
2017-11-09T23:45:49.306Z,72.97
2017-11-09T23:48:16.837Z,68.82
2017-11-09T23:50:45.272Z,68.00
2017-11-09T23:53:12.793Z,68.22
2017-11-09T23:55:40.341Z,70.20
2017-11-09T23:58:07.836Z,63.00
